createdAt,value
2017-11-17T00:00:50.449Z,38.05
2017-11-17T00:01:59.280Z,37.86
2017-11-17T00:03:08.110Z,37.76
2017-11-17T00:04:16.987Z,37.95
2017-11-17T00:05:25.819Z,37.67
2017-11-17T00:06:34.650Z,38.14
2017-11-17T00:07:43.480Z,37.86
2017-11-17T00:08:52.306Z,37.86
2017-11-17T00:10:01.444Z,37.76
2017-11-17T00:11:10.274Z,37.95
2017-11-17T00:12:19.145Z,37.48
2017-11-17T00:13:27.976Z,37.67
2017-11-17T00:14:36.807Z,38.14
2017-11-17T00:15:45.686Z,38.14
2017-11-17T00:16:54.518Z,37.86
2017-11-17T00:18:03.349Z,37.95
2017-11-17T00:19:12.455Z,37.95
2017-11-17T00:20:21.283Z,37.86
2017-11-17T00:21:30.110Z,37.76
2017-11-17T00:22:38.941Z,37.95
2017-11-17T00:23:47.767Z,37.76
2017-11-17T00:24:56.598Z,37.86
2017-11-17T00:26:05.436Z,37.86
2017-11-17T00:27:14.309Z,38.14
2017-11-17T00:28:23.139Z,37.86
2017-11-17T00:29:31.968Z,38.24
2017-11-17T00:30:40.798Z,37.76
2017-11-17T00:31:49.631Z,37.86
2017-11-17T00:32:58.513Z,37.95
2017-11-17T00:34:07.617Z,38.03
2017-11-17T00:35:16.446Z,37.74
2017-11-17T00:36:25.275Z,37.74
2017-11-17T00:37:34.104Z,37.84
2017-11-17T00:38:42.935Z,37.74
2017-11-17T00:39:51.766Z,38.22
2017-11-17T00:41:00.593Z,37.86
2017-11-17T00:42:09.420Z,38.03
2017-11-17T00:43:18.249Z,37.93
2017-11-17T00:44:27.177Z,37.74
2017-11-17T00:45:36.287Z,37.65
2017-11-17T00:46:45.117Z,37.84
2017-11-17T00:47:53.948Z,38.03
2017-11-17T00:49:02.776Z,38.03
2017-11-17T00:50:11.705Z,38.22
2017-11-17T00:51:20.532Z,38.03
2017-11-17T00:52:29.362Z,38.22
2017-11-17T00:53:38.192Z,38.31
2017-11-17T00:54:47.022Z,38.12
2017-11-17T00:55:56.158Z,38.03
2017-11-17T00:57:04.976Z,38.22
2017-11-17T00:58:13.805Z,38.12
2017-11-17T00:59:22.634Z,38.22
2017-11-17T01:00:31.463Z,38.12
2017-11-17T01:01:40.825Z,38.31
2017-11-17T01:02:49.650Z,38.98
2017-11-17T01:03:58.481Z,39.07
2017-11-17T01:05:07.308Z,38.89
2017-11-17T01:06:16.133Z,38.89
2017-11-17T01:07:25.264Z,39.07
2017-11-17T01:08:34.374Z,38.51
2017-11-17T01:09:43.210Z,38.89
2017-11-17T01:10:52.029Z,38.79
2017-11-17T01:12:00.861Z,38.6
2017-11-17T01:13:09.939Z,38.89
2017-11-17T01:14:18.776Z,38.7
2017-11-17T01:15:27.596Z,38.7
2017-11-17T01:16:36.425Z,38.89
2017-11-17T01:17:45.255Z,38.79
2017-11-17T01:18:54.231Z,38.79
2017-11-17T01:20:03.062Z,38.79
2017-11-17T01:21:11.895Z,38.68
2017-11-17T01:22:20.719Z,38.96
2017-11-17T01:23:29.547Z,39.36
2017-11-17T01:24:38.376Z,39.17
2017-11-17T01:25:47.205Z,39.43
2017-11-17T01:26:56.033Z,39.25
2017-11-17T01:28:04.862Z,39.25
2017-11-17T01:29:13.966Z,38.87
2017-11-17T01:30:22.796Z,39.15
2017-11-17T01:31:31.624Z,39.34
2017-11-17T01:32:40.454Z,39.62
2017-11-17T01:33:49.284Z,39.15
2017-11-17T01:34:58.117Z,39.43
2017-11-17T01:36:06.944Z,39.43
2017-11-17T01:37:16.008Z,39.25
2017-11-17T01:38:24.837Z,39.62
2017-11-17T01:39:33.664Z,39.62
2017-11-17T01:40:42.492Z,39.62
2017-11-17T01:41:51.371Z,39.43
2017-11-17T01:43:00.199Z,39.34
2017-11-17T01:44:09.028Z,39.81
2017-11-17T01:45:18.132Z,39.62
2017-11-17T01:46:26.962Z,39.91
2017-11-17T01:47:35.991Z,39.72
2017-11-17T01:48:44.820Z,39.81
2017-11-17T01:49:53.656Z,40.01
2017-11-17T01:51:02.478Z,39.91
2017-11-17T01:52:11.303Z,39.53
2017-11-17T01:53:20.130Z,39.81
2017-11-17T01:54:28.956Z,39.91
2017-11-17T01:55:37.785Z,39.91
2017-11-17T01:56:46.613Z,39.81
2017-11-17T01:57:55.441Z,39.81
2017-11-17T01:59:04.420Z,39.81
2017-11-17T02:00:13.535Z,39.81
2017-11-17T02:01:22.681Z,39.91
2017-11-17T02:02:31.510Z,39.62
2017-11-17T02:03:40.337Z,39.81
2017-11-17T02:04:49.166Z,39.81
2017-11-17T02:05:57.995Z,39.81
2017-11-17T02:07:07.104Z,39.81
2017-11-17T02:08:15.932Z,40.01
2017-11-17T02:09:25.036Z,39.91
2017-11-17T02:10:34.266Z,39.43
2017-11-17T02:11:43.376Z,39.81
2017-11-17T02:12:52.201Z,39.81
2017-11-17T02:14:01.331Z,39.91
2017-11-17T02:15:10.157Z,39.91
2017-11-17T02:16:19.135Z,40.01
2017-11-17T02:17:27.963Z,39.53
2017-11-17T02:18:36.790Z,40.01
2017-11-17T02:19:45.900Z,39.98
2017-11-17T02:20:54.725Z,39.79
2017-11-17T02:22:03.605Z,39.98
2017-11-17T02:23:12.440Z,39.89
2017-11-17T02:24:21.268Z,39.89
2017-11-17T02:25:30.098Z,39.98
2017-11-17T02:26:38.925Z,40.08
2017-11-17T02:27:48.061Z,39.98
2017-11-17T02:28:56.884Z,39.89
2017-11-17T02:30:05.711Z,40.46
2017-11-17T02:31:14.591Z,40.94
2017-11-17T02:32:23.418Z,40.94
2017-11-17T02:33:32.251Z,41.03
2017-11-17T02:34:41.365Z,41.03
2017-11-17T02:35:50.197Z,41.13
2017-11-17T02:36:59.023Z,41.13
2017-11-17T02:38:07.852Z,40.94
2017-11-17T02:39:16.979Z,41.13
2017-11-17T02:40:25.810Z,41.03
2017-11-17T02:41:34.641Z,41.6
2017-11-17T02:42:43.470Z,41.79
2017-11-17T02:43:52.299Z,41.89
2017-11-17T02:45:01.279Z,42.46
2017-11-17T02:46:11.048Z,42.08
2017-11-17T02:47:20.157Z,42.27
2017-11-17T02:48:28.990Z,42.08
2017-11-17T02:49:37.817Z,42.46
2017-11-17T02:50:46.837Z,43.12
2017-11-17T02:51:55.992Z,42.46
2017-11-17T02:53:04.818Z,43.12
2017-11-17T02:54:13.647Z,42.74
2017-11-17T02:55:22.476Z,42.72
2017-11-17T02:56:32.062Z,42.72
2017-11-17T02:57:41.177Z,42.72
2017-11-17T02:58:50.007Z,42.82
2017-11-17T02:59:59.113Z,42.72
2017-11-17T03:01:07.941Z,42.72
2017-11-17T03:02:16.770Z,42.82
2017-11-17T03:03:25.875Z,42.72
2017-11-17T03:04:34.991Z,43.01
2017-11-17T03:05:44.094Z,43.38
2017-11-17T03:06:52.925Z,43.01
2017-11-17T03:08:01.801Z,43.76
2017-11-17T03:09:10.628Z,44.05
2017-11-17T03:10:19.454Z,44.24
2017-11-17T03:11:28.572Z,44.14
2017-11-17T03:12:37.409Z,44.34
2017-11-17T03:13:46.324Z,43.86
2017-11-17T03:14:55.152Z,43.76
2017-11-17T03:16:03.978Z,44.14
2017-11-17T03:17:12.807Z,43.76
2017-11-17T03:18:21.914Z,44.05
2017-11-17T03:19:31.171Z,43.76
2017-11-17T03:20:39.968Z,43.86
2017-11-17T03:21:48.795Z,44.62
2017-11-17T03:22:57.624Z,44.53
2017-11-17T03:24:06.729Z,44.62
2017-11-17T03:25:15.608Z,44.81
2017-11-17T03:26:24.432Z,44.62
2017-11-17T03:27:33.260Z,44.71
2017-11-17T03:28:42.088Z,44.71
2017-11-17T03:29:51.189Z,44.05
2017-11-17T03:31:00.126Z,44.81
2017-11-17T03:32:08.952Z,44.9
2017-11-17T03:33:17.776Z,44.9
2017-11-17T03:34:26.603Z,44.71
2017-11-17T03:35:35.432Z,44.34
2017-11-17T03:36:44.410Z,44.81
2017-11-17T03:37:53.242Z,44.71
2017-11-17T03:39:02.067Z,44.62
2017-11-17T03:40:10.894Z,44.62
2017-11-17T03:41:19.722Z,44.62
2017-11-17T03:42:28.851Z,44.81
2017-11-17T03:43:37.678Z,45.19
2017-11-17T03:44:46.507Z,45
2017-11-17T03:45:55.331Z,45.09
2017-11-17T03:47:04.161Z,45.07
2017-11-17T03:48:13.289Z,45.07
2017-11-17T03:49:22.115Z,45.28
2017-11-17T03:50:30.941Z,45.07
2017-11-17T03:51:39.772Z,45.38
2017-11-17T03:52:48.601Z,45.09
2017-11-17T03:53:57.429Z,45.09
2017-11-17T03:55:06.255Z,45.36
2017-11-17T03:56:15.080Z,45.36
2017-11-17T03:57:24.192Z,45.19
2017-11-17T03:58:33.022Z,44.69
2017-11-17T03:59:42.149Z,45.38
2017-11-17T04:00:51.252Z,45.26
2017-11-17T04:02:00.083Z,45.07
2017-11-17T04:03:08.906Z,45.45
2017-11-17T04:04:17.733Z,45.54
2017-11-17T04:05:26.659Z,45.17
2017-11-17T04:06:35.761Z,45.36
2017-11-17T04:07:44.590Z,45.36
2017-11-17T04:08:53.420Z,45.17
2017-11-17T04:10:02.244Z,45.26
2017-11-17T04:11:11.177Z,45.26
2017-11-17T04:12:19.998Z,45.36
2017-11-17T04:13:28.831Z,45.36
2017-11-17T04:14:37.653Z,44.88
2017-11-17T04:15:46.477Z,45.54
2017-11-17T04:16:55.306Z,45.07
2017-11-17T04:18:04.131Z,44.98
2017-11-17T04:19:12.957Z,45.73
2017-11-17T04:20:21.782Z,45.73
2017-11-17T04:21:30.609Z,45.73
2017-11-17T04:22:39.736Z,45.83
2017-11-17T04:23:48.565Z,45.54
2017-11-17T04:24:57.389Z,45.45
2017-11-17T04:26:06.217Z,45.83
2017-11-17T04:27:15.046Z,45.83
2017-11-17T04:28:24.300Z,45.36
2017-11-17T04:29:33.127Z,45.54
2017-11-17T04:30:41.955Z,45.83
2017-11-17T04:31:50.780Z,46.02
2017-11-17T04:32:59.610Z,46.3
2017-11-17T04:34:08.440Z,45.54
2017-11-17T04:35:17.264Z,46.4
2017-11-17T04:36:26.090Z,45.83
2017-11-17T04:37:35.197Z,46.3
2017-11-17T04:38:44.300Z,46.4
2017-11-17T04:39:53.127Z,45.45
2017-11-17T04:41:01.955Z,46.3
2017-11-17T04:42:10.783Z,46.21
2017-11-17T04:43:19.607Z,46.19
2017-11-17T04:44:28.438Z,46.21
2017-11-17T04:45:37.269Z,46.19
2017-11-17T04:46:46.093Z,46.3
2017-11-17T04:47:54.921Z,46
2017-11-17T04:49:03.747Z,46.37
2017-11-17T04:50:12.571Z,46
2017-11-17T04:51:21.645Z,46.19
2017-11-17T04:52:30.474Z,46.19
2017-11-17T04:53:39.301Z,46.47
2017-11-17T04:54:48.136Z,46.19
2017-11-17T04:55:56.956Z,45.9
2017-11-17T04:57:05.784Z,46.66
2017-11-17T04:58:14.608Z,46.28
2017-11-17T04:59:23.716Z,46.28
2017-11-17T05:00:32.552Z,46
2017-11-17T05:01:41.370Z,45.9
2017-11-17T05:02:50.349Z,46.09
2017-11-17T05:03:59.176Z,45.62
2017-11-17T05:05:08.001Z,46.37
2017-11-17T05:06:16.831Z,45.62
2017-11-17T05:07:25.654Z,45.52
2017-11-17T05:08:34.533Z,46.19
2017-11-17T05:09:43.359Z,46.19
2017-11-17T05:10:52.189Z,46.28
2017-11-17T05:12:01.012Z,45.71
2017-11-17T05:13:09.840Z,45.33
2017-11-17T05:14:18.671Z,45.52
2017-11-17T05:15:27.495Z,45.81
2017-11-17T05:16:36.334Z,45.43
2017-11-17T05:17:45.151Z,45.52
2017-11-17T05:18:53.977Z,45.52
2017-11-17T05:20:02.801Z,45.81
2017-11-17T05:21:11.629Z,45.64
2017-11-17T05:22:20.455Z,45.43
2017-11-17T05:23:29.280Z,45.73
2017-11-17T05:24:38.108Z,45.33
2017-11-17T05:25:47.035Z,45.52
2017-11-17T05:26:55.865Z,45.71
2017-11-17T05:28:04.696Z,45.71
2017-11-17T05:29:13.518Z,45.71
2017-11-17T05:30:22.349Z,45.83
2017-11-17T05:31:31.172Z,45.71
2017-11-17T05:32:39.998Z,45.43
2017-11-17T05:33:48.824Z,45.43
2017-11-17T05:34:57.933Z,45.52
2017-11-17T05:36:06.759Z,45.71
2017-11-17T05:37:15.786Z,45.43
2017-11-17T05:38:24.612Z,45.52
2017-11-17T05:39:33.439Z,45.52
2017-11-17T05:40:42.269Z,45.62
2017-11-17T05:41:51.091Z,45.52
2017-11-17T05:43:00.018Z,45.62
2017-11-17T05:44:09.127Z,45.71
2017-11-17T05:45:18.230Z,46.28
2017-11-17T05:46:27.345Z,45.81
2017-11-17T05:47:36.170Z,45.9
2017-11-17T05:48:45.305Z,45.62
2017-11-17T05:49:54.123Z,45.62
2017-11-17T05:51:02.950Z,46.19
2017-11-17T05:52:12.063Z,46.28
2017-11-17T05:53:20.890Z,46.37
2017-11-17T05:54:30.119Z,46.09
2017-11-17T05:55:38.946Z,46.09
2017-11-17T05:56:48.056Z,46.37
2017-11-17T05:57:56.881Z,46.66
2017-11-17T05:59:05.705Z,46.28
2017-11-17T06:00:14.685Z,46.37
2017-11-17T06:01:23.837Z,46.66
2017-11-17T06:02:32.663Z,46.47
2017-11-17T06:03:41.496Z,46.37
2017-11-17T06:04:50.609Z,46.19
2017-11-17T06:05:59.536Z,46.37
2017-11-17T06:07:08.363Z,46.28
2017-11-17T06:08:17.193Z,46.19
2017-11-17T06:09:26.021Z,46.66
2017-11-17T06:10:34.851Z,46.37
2017-11-17T06:11:43.780Z,46.56
2017-11-17T06:12:52.606Z,46.47
2017-11-17T06:14:01.435Z,46.66
2017-11-17T06:15:10.262Z,46.85
2017-11-17T06:16:19.090Z,47.32
2017-11-17T06:17:28.197Z,47.32
2017-11-17T06:18:37.025Z,47.13
2017-11-17T06:19:45.850Z,47.52
2017-11-17T06:20:54.955Z,47.71
2017-11-17T06:22:03.781Z,47.32
2017-11-17T06:23:12.712Z,47.71
2017-11-17T06:24:21.534Z,47.52
2017-11-17T06:25:30.638Z,47.52
2017-11-17T06:26:39.467Z,48.36
2017-11-17T06:27:48.293Z,48.94
2017-11-17T06:28:57.319Z,48.94
2017-11-17T06:30:07.546Z,48.56
2017-11-17T06:31:16.379Z,49.29
2017-11-17T06:32:25.198Z,48.84
2017-11-17T06:33:34.307Z,49.32
2017-11-17T06:34:43.135Z,49.1
2017-11-17T06:35:52.541Z,49.1
2017-11-17T06:37:01.368Z,49.48
2017-11-17T06:38:10.194Z,49.1
2017-11-17T06:39:19.023Z,49.38
2017-11-17T06:40:27.849Z,49.29
2017-11-17T06:41:36.676Z,49.29
2017-11-17T06:42:45.503Z,48.63
2017-11-17T06:43:54.617Z,48.63
2017-11-17T06:45:03.449Z,48.84
2017-11-17T06:46:12.335Z,48.72
2017-11-17T06:47:21.433Z,48.82
2017-11-17T06:48:30.259Z,48.72
2017-11-17T06:49:39.088Z,48.82
2017-11-17T06:50:47.915Z,48.72
2017-11-17T06:51:56.844Z,48.63
2017-11-17T06:53:05.948Z,48.72
2017-11-17T06:54:14.825Z,49.1
2017-11-17T06:55:24.213Z,48.91
2017-11-17T06:56:33.036Z,48.72
2017-11-17T06:57:41.963Z,48.91
2017-11-17T06:58:50.789Z,49.1
2017-11-17T06:59:59.618Z,49.29
2017-11-17T07:01:08.446Z,49.19
2017-11-17T07:02:17.272Z,49.29
2017-11-17T07:03:26.249Z,49.48
2017-11-17T07:04:35.374Z,49.19
2017-11-17T07:05:44.194Z,49.1
2017-11-17T07:06:53.021Z,49.19
2017-11-17T07:08:01.848Z,49.19
2017-11-17T07:09:10.723Z,49.38
2017-11-17T07:10:19.552Z,49.57
2017-11-17T07:11:28.379Z,49.19
2017-11-17T07:12:37.615Z,49.1
2017-11-17T07:13:46.447Z,49.19
2017-11-17T07:14:55.854Z,48.91
2017-11-17T07:16:04.681Z,49.19
2017-11-17T07:17:13.510Z,49.01
2017-11-17T07:18:22.337Z,49.38
2017-11-17T07:19:31.163Z,49.38
2017-11-17T07:20:39.990Z,49.38
2017-11-17T07:21:48.815Z,49.1
2017-11-17T07:22:57.645Z,49.19
2017-11-17T07:24:06.477Z,49.57
2017-11-17T07:25:15.588Z,50.05
2017-11-17T07:26:24.415Z,50.52
2017-11-17T07:27:33.244Z,49.57
2017-11-17T07:28:42.069Z,49.86
2017-11-17T07:29:50.896Z,49.76
2017-11-17T07:30:59.729Z,49.95
2017-11-17T07:32:08.853Z,49.86
2017-11-17T07:33:17.681Z,49.76
2017-11-17T07:34:26.509Z,49.48
2017-11-17T07:35:35.334Z,49.76
2017-11-17T07:36:44.160Z,49.76
2017-11-17T07:37:52.998Z,49.76
2017-11-17T07:39:01.817Z,49.95
2017-11-17T07:40:10.662Z,49.67
2017-11-17T07:41:19.470Z,49.67
2017-11-17T07:42:28.293Z,49.48
2017-11-17T07:43:37.221Z,49.76
2017-11-17T07:44:46.052Z,49.86
2017-11-17T07:45:54.879Z,49.48
2017-11-17T07:47:03.707Z,49.67
2017-11-17T07:48:12.541Z,49.76
2017-11-17T07:49:21.459Z,49.57
2017-11-17T07:50:30.283Z,49.67
2017-11-17T07:51:39.111Z,49.76
2017-11-17T07:52:47.937Z,49.57
2017-11-17T07:53:56.762Z,49.67
2017-11-17T07:55:05.642Z,49.76
2017-11-17T07:56:14.466Z,49.76
2017-11-17T07:57:23.294Z,49.76
2017-11-17T07:58:32.121Z,49.57
2017-11-17T07:59:40.947Z,49.57
2017-11-17T08:00:49.874Z,49.76
2017-11-17T08:01:58.746Z,49.67
2017-11-17T08:03:07.531Z,49.48
2017-11-17T08:04:16.644Z,49.48
2017-11-17T08:05:25.471Z,49.86
2017-11-17T08:06:34.346Z,50.05
2017-11-17T08:07:43.174Z,49.76
2017-11-17T08:08:52.002Z,49.76
2017-11-17T08:10:00.831Z,49.86
2017-11-17T08:11:09.659Z,49.76
2017-11-17T08:12:18.813Z,49.67
2017-11-17T08:13:27.641Z,49.67
2017-11-17T08:14:36.472Z,50.05
2017-11-17T08:15:45.296Z,49.57
2017-11-17T08:16:54.124Z,49.86
2017-11-17T08:18:02.949Z,49.57
2017-11-17T08:19:11.777Z,49.95
2017-11-17T08:20:20.610Z,49.57
2017-11-17T08:21:29.712Z,49.57
2017-11-17T08:22:38.540Z,49.95
2017-11-17T08:23:47.465Z,49.48
2017-11-17T08:24:56.291Z,49.86
2017-11-17T08:26:05.134Z,49.76
2017-11-17T08:27:13.947Z,49.67
2017-11-17T08:28:22.773Z,49.48
2017-11-17T08:29:31.754Z,49.76
2017-11-17T08:30:40.577Z,49.38
2017-11-17T08:31:49.403Z,49.76
2017-11-17T08:32:58.233Z,49.67
2017-11-17T08:34:07.063Z,49.76
2017-11-17T08:35:16.190Z,49.29
2017-11-17T08:36:25.019Z,48.82
2017-11-17T08:37:33.845Z,49.1
2017-11-17T08:38:42.672Z,49.29
2017-11-17T08:39:51.498Z,49.38
2017-11-17T08:41:00.428Z,49.1
2017-11-17T08:42:09.831Z,49.29
2017-11-17T08:43:18.645Z,48.91
2017-11-17T08:44:27.470Z,49.1
2017-11-17T08:45:36.299Z,48.91
2017-11-17T08:46:45.505Z,48.91
2017-11-17T08:47:54.330Z,49.86
2017-11-17T08:49:03.159Z,49.38
2017-11-17T08:50:11.982Z,49.57
2017-11-17T08:51:20.809Z,49.76
2017-11-17T08:52:29.884Z,49.76
2017-11-17T08:53:38.714Z,49.1
2017-11-17T08:54:47.545Z,49.29
2017-11-17T08:55:56.665Z,48.91
2017-11-17T08:57:05.489Z,49.32
2017-11-17T08:58:14.703Z,49.1
2017-11-17T08:59:23.529Z,48.75
2017-11-17T09:00:32.630Z,49.13
2017-11-17T09:01:41.458Z,48.56
2017-11-17T09:02:50.286Z,49.22
2017-11-17T09:03:59.114Z,48.84
2017-11-17T09:05:08.230Z,49.13
2017-11-17T09:06:17.066Z,48.75
2017-11-17T09:07:25.885Z,49.22
2017-11-17T09:08:34.715Z,48.84
2017-11-17T09:09:43.556Z,48.94
2017-11-17T09:10:52.368Z,48.84
2017-11-17T09:12:01.197Z,49.51
2017-11-17T09:13:10.301Z,49.51
2017-11-17T09:14:19.409Z,48.94
2017-11-17T09:15:28.287Z,49.6
2017-11-17T09:16:37.118Z,49.51
2017-11-17T09:17:45.941Z,49.41
2017-11-17T09:18:54.774Z,49.32
2017-11-17T09:20:03.882Z,49.88
2017-11-17T09:21:12.909Z,49.51
2017-11-17T09:22:21.738Z,49.41
2017-11-17T09:23:30.566Z,49.79
2017-11-17T09:24:39.393Z,50.26
2017-11-17T09:25:48.222Z,50.55
2017-11-17T09:26:57.401Z,50.55
2017-11-17T09:28:06.242Z,50.74
2017-11-17T09:29:15.067Z,50.55
2017-11-17T09:30:23.894Z,51.03
2017-11-17T09:31:32.720Z,50.74
2017-11-17T09:32:41.548Z,50.45
2017-11-17T09:33:50.378Z,50.36
2017-11-17T09:34:59.205Z,51.52
2017-11-17T09:36:08.033Z,52.06
2017-11-17T09:37:16.861Z,52.54
2017-11-17T09:38:25.840Z,52.45
2017-11-17T09:39:34.667Z,53.11
2017-11-17T09:40:43.495Z,54.82
2017-11-17T09:41:52.323Z,54.56
2017-11-17T09:43:01.152Z,54.75
2017-11-17T09:44:09.979Z,55.7
2017-11-17T09:45:18.804Z,55.51
2017-11-17T09:46:27.632Z,54.85
2017-11-17T09:47:36.746Z,54.46
2017-11-17T09:48:45.863Z,56.08
2017-11-17T09:49:54.841Z,54.94
2017-11-17T09:51:03.671Z,54.94
2017-11-17T09:52:12.500Z,55.04
2017-11-17T09:53:21.331Z,55.51
2017-11-17T09:54:30.154Z,56.46
2017-11-17T09:55:39.790Z,56.84
2017-11-17T09:56:48.616Z,57.59
2017-11-17T09:57:57.445Z,59.88
2017-11-17T09:59:06.272Z,60.63
2017-11-17T10:00:15.101Z,59.68
2017-11-17T10:01:24.228Z,59.97
2017-11-17T10:02:33.078Z,60.44
2017-11-17T10:03:42.486Z,61.68
2017-11-17T10:04:51.569Z,61.2
2017-11-17T10:06:00.683Z,61.3
2017-11-17T10:07:09.999Z,61.68
2017-11-17T10:08:18.865Z,60.44
2017-11-17T10:09:28.239Z,61.2
2017-11-17T10:10:37.285Z,61.58
2017-11-17T10:11:46.360Z,63.39
2017-11-17T10:12:55.222Z,62.43
2017-11-17T10:14:04.371Z,64.62
2017-11-17T10:15:13.217Z,65.31
2017-11-17T10:16:22.065Z,70.63
2017-11-17T10:17:30.893Z,70.25
2017-11-17T10:18:39.791Z,68.83
2017-11-17T10:19:49.233Z,70.44
2017-11-17T10:20:58.329Z,70.25
2017-11-17T10:22:07.731Z,70.06
2017-11-17T10:23:16.869Z,71.01
2017-11-17T10:24:25.784Z,72.44
2017-11-17T10:25:34.656Z,70.15
2017-11-17T10:26:43.759Z,70.54
2017-11-17T10:27:52.640Z,70.35
2017-11-17T10:29:01.471Z,71.96
2017-11-17T10:30:10.298Z,74.05
2017-11-17T10:31:19.131Z,73.86
2017-11-17T10:32:27.991Z,75.09
2017-11-17T10:33:36.898Z,73.48
2017-11-17T10:34:45.731Z,74.05
2017-11-17T10:35:54.984Z,75
2017-11-17T10:37:04.450Z,77.66
2017-11-17T10:38:13.712Z,78.36
2017-11-17T10:39:22.638Z,78.83
2017-11-17T10:40:31.460Z,79.5
2017-11-17T10:41:40.390Z,85.01
2017-11-17T10:42:49.763Z,85.39
2017-11-17T10:43:58.676Z,85.2
2017-11-17T10:45:08.096Z,86.15
2017-11-17T10:46:17.717Z,86.05
2017-11-17T10:47:27.321Z,84.72
2017-11-17T10:48:36.684Z,85.49
2017-11-17T10:49:45.567Z,85.58
2017-11-17T10:50:54.641Z,85.2
2017-11-17T10:52:03.493Z,85.39
2017-11-17T10:53:12.839Z,85.58
2017-11-17T10:54:22.028Z,86.05
2017-11-17T10:55:31.539Z,85.3
2017-11-17T10:56:40.669Z,84.53
2017-11-17T10:57:49.723Z,85.96
2017-11-17T10:58:58.559Z,89.19
2017-11-17T11:00:07.385Z,89.52
2017-11-17T11:01:16.216Z,88.28
2017-11-17T11:02:25.043Z,88.24
2017-11-17T11:03:33.876Z,89.8
2017-11-17T11:04:42.708Z,89.33
2017-11-17T11:05:51.816Z,90.19
2017-11-17T11:07:00.644Z,89.8
2017-11-17T11:08:09.473Z,91.23
2017-11-17T11:09:18.303Z,90.85
2017-11-17T11:10:27.531Z,90.56
2017-11-17T11:11:36.360Z,93.41
2017-11-17T11:12:45.439Z,96.36
2017-11-17T11:13:54.269Z,95.51
2017-11-17T11:15:03.384Z,98.26
2017-11-17T11:16:12.504Z,98.83
2017-11-17T11:17:21.335Z,98.36
2017-11-17T11:18:30.165Z,99.99
2017-11-17T11:19:38.997Z,99.3
2017-11-17T11:20:47.822Z,99.69
2017-11-17T11:21:56.703Z,99.78
2017-11-17T11:23:05.828Z,99.97
2017-11-17T11:24:14.658Z,99.99
2017-11-17T11:25:23.489Z,99.99
2017-11-17T11:26:32.320Z,99.99
2017-11-17T11:27:41.299Z,99.99
2017-11-17T11:28:50.129Z,99.99
2017-11-17T11:29:59.236Z,99.99
2017-11-17T11:31:08.067Z,99.99
2017-11-17T11:32:16.896Z,99.99
2017-11-17T11:33:25.725Z,99.99
2017-11-17T11:34:34.555Z,99.99
2017-11-17T11:35:43.385Z,99.99
2017-11-17T11:36:52.217Z,99.99
2017-11-17T11:38:01.088Z,99.99
2017-11-17T11:39:10.179Z,99.99
2017-11-17T11:40:19.324Z,99.99
2017-11-17T11:41:28.146Z,99.99
2017-11-17T11:42:36.980Z,99.99
2017-11-17T11:43:46.092Z,99.99
2017-11-17T11:44:55.072Z,99.99
2017-11-17T11:46:03.912Z,99.99
2017-11-17T11:47:12.731Z,99.99
2017-11-17T11:48:21.844Z,99.99
2017-11-17T11:49:30.958Z,99.99
2017-11-17T11:50:39.781Z,99.99
2017-11-17T11:51:48.612Z,99.99
2017-11-17T11:52:57.445Z,99.99
2017-11-17T11:54:06.273Z,99.99
2017-11-17T11:55:15.101Z,99.99
2017-11-17T11:56:24.233Z,99.99
2017-11-17T11:57:33.063Z,99.99
2017-11-17T11:58:41.894Z,99.99
2017-11-17T11:59:50.725Z,99.99
2017-11-17T12:00:59.554Z,99.99
2017-11-17T12:02:08.487Z,99.99
2017-11-17T12:03:17.316Z,99.99
2017-11-17T12:04:26.143Z,99.99
2017-11-17T12:05:34.975Z,99.99
2017-11-17T12:06:43.807Z,99.99
2017-11-17T12:07:52.687Z,99.99
2017-11-17T12:09:01.519Z,99.99
2017-11-17T12:10:10.352Z,99.99
2017-11-17T12:11:19.180Z,99.99
2017-11-17T12:12:28.013Z,99.99
2017-11-17T12:13:36.850Z,99.99
2017-11-17T12:14:45.684Z,99.99
2017-11-17T12:15:54.793Z,99.99
2017-11-17T12:17:03.624Z,99.99
2017-11-17T12:18:12.453Z,99.99
2017-11-17T12:19:21.285Z,99.99
2017-11-17T12:20:30.117Z,99.99
2017-11-17T12:21:38.957Z,99.99
2017-11-17T12:22:47.778Z,99.99
2017-11-17T12:23:56.608Z,99.99
2017-11-17T12:25:05.437Z,99.99
2017-11-17T12:26:14.265Z,99.99
2017-11-17T12:27:23.094Z,99.99
2017-11-17T12:28:31.925Z,99.99
2017-11-17T12:29:40.756Z,99.99
2017-11-17T12:30:50.070Z,99.99
2017-11-17T12:31:59.179Z,99.99
2017-11-17T12:33:08.013Z,99.99
2017-11-17T12:34:16.844Z,99.99
2017-11-17T12:35:25.673Z,99.99
2017-11-17T12:36:34.704Z,99.99
2017-11-17T12:37:43.536Z,99.99
2017-11-17T12:38:52.367Z,99.99
2017-11-17T12:40:01.199Z,99.99
2017-11-17T12:41:10.027Z,99.99
2017-11-17T12:42:19.160Z,99.99
2017-11-17T12:43:27.993Z,99.99
2017-11-17T12:44:36.823Z,99.99
2017-11-17T12:45:45.655Z,99.99
2017-11-17T12:46:54.484Z,99.99
2017-11-17T12:48:03.465Z,99.99
2017-11-17T12:49:12.296Z,99.99
2017-11-17T12:50:21.127Z,99.99
2017-11-17T12:51:29.961Z,99.99
2017-11-17T12:52:38.793Z,99.99
2017-11-17T12:53:47.725Z,99.99
2017-11-17T12:54:56.557Z,99.99
2017-11-17T12:56:05.394Z,99.99
2017-11-17T12:57:14.216Z,99.99
2017-11-17T12:58:23.046Z,99.99
2017-11-17T12:59:31.986Z,99.99
2017-11-17T13:00:40.814Z,99.99
2017-11-17T13:01:49.926Z,99.99
2017-11-17T13:02:58.755Z,99.99
2017-11-17T13:04:07.587Z,99.99
2017-11-17T13:05:16.469Z,99.99
2017-11-17T13:06:25.307Z,99.99
2017-11-17T13:07:34.132Z,99.99
2017-11-17T13:08:42.967Z,99.99
2017-11-17T13:09:51.800Z,99.99
2017-11-17T13:11:00.754Z,99.99
2017-11-17T13:12:09.573Z,99.99
2017-11-17T13:13:18.403Z,99.99
2017-11-17T13:14:27.237Z,99.99
2017-11-17T13:15:36.069Z,99.99
2017-11-17T13:16:44.953Z,99.99
2017-11-17T13:17:53.785Z,99.99
2017-11-17T13:19:02.613Z,99.99
2017-11-17T13:20:11.445Z,99.99
2017-11-17T13:21:20.276Z,99.99
2017-11-17T13:22:29.158Z,99.99
2017-11-17T13:23:37.992Z,99.99
2017-11-17T13:24:46.831Z,99.99
2017-11-17T13:25:55.655Z,99.99
2017-11-17T13:27:04.488Z,99.99
2017-11-17T13:28:13.652Z,99.99
2017-11-17T13:29:22.484Z,99.99
2017-11-17T13:30:31.326Z,99.99
2017-11-17T13:31:40.151Z,99.99
2017-11-17T13:32:48.985Z,99.99
2017-11-17T13:33:58.251Z,99.99
2017-11-17T13:35:07.364Z,99.99
2017-11-17T13:36:16.198Z,99.99
2017-11-17T13:37:25.029Z,99.99
2017-11-17T13:38:33.863Z,99.99
2017-11-17T13:39:43.073Z,99.99
2017-11-17T13:40:51.903Z,99.99
2017-11-17T13:42:00.734Z,99.99
2017-11-17T13:43:09.580Z,99.99
2017-11-17T13:44:18.413Z,99.99
2017-11-17T13:45:27.295Z,99.99
2017-11-17T13:46:36.130Z,99.99
2017-11-17T13:47:44.962Z,99.99
2017-11-17T13:48:53.798Z,99.99
2017-11-17T13:50:02.630Z,99.99
2017-11-17T13:51:11.466Z,99.99
2017-11-17T13:52:20.300Z,99.99
2017-11-17T13:53:29.133Z,99.99
2017-11-17T13:54:37.968Z,99.99
2017-11-17T13:55:46.800Z,99.99
2017-11-17T13:56:56.033Z,99.99
2017-11-17T13:58:04.868Z,99.99
2017-11-17T13:59:13.711Z,99.99
2017-11-17T14:00:22.851Z,99.99
2017-11-17T14:01:31.966Z,99.99
2017-11-17T14:02:40.799Z,99.99
2017-11-17T14:03:49.633Z,99.99
2017-11-17T14:04:58.469Z,99.99
2017-11-17T14:06:07.594Z,99.99
2017-11-17T14:07:16.740Z,99.99
2017-11-17T14:08:25.576Z,99.99
2017-11-17T14:09:34.708Z,99.99
2017-11-17T14:10:43.826Z,99.99
2017-11-17T14:11:52.664Z,99.99
2017-11-17T14:13:01.782Z,99.99
2017-11-17T14:14:10.768Z,99.99
2017-11-17T14:15:19.602Z,99.99
2017-11-17T14:16:28.439Z,99.99
2017-11-17T14:17:37.272Z,99.99
2017-11-17T14:18:46.392Z,99.99
2017-11-17T14:19:55.423Z,99.99
2017-11-17T14:21:04.256Z,99.99
2017-11-17T14:22:13.092Z,99.99
2017-11-17T14:23:21.977Z,99.99
2017-11-17T14:24:30.813Z,99.99
2017-11-17T14:25:40.488Z,99.99
2017-11-17T14:26:49.326Z,99.99
2017-11-17T14:27:58.165Z,99.99
2017-11-17T14:29:07.006Z,99.99
2017-11-17T14:30:15.837Z,99.99
2017-11-17T14:31:24.973Z,99.99
2017-11-17T14:32:33.811Z,99.99
2017-11-17T14:33:42.920Z,99.99
2017-11-17T14:34:51.753Z,99.99
2017-11-17T14:36:00.588Z,99.99
2017-11-17T14:37:09.471Z,99.99
2017-11-17T14:38:18.304Z,99.99
2017-11-17T14:39:27.139Z,99.99
2017-11-17T14:40:35.972Z,99.99
2017-11-17T14:41:44.803Z,99.99
2017-11-17T14:42:53.791Z,99.99
2017-11-17T14:44:02.622Z,99.99
2017-11-17T14:45:11.460Z,99.99
2017-11-17T14:46:20.295Z,99.99
2017-11-17T14:47:29.414Z,99.99
2017-11-17T14:48:38.296Z,99.99
2017-11-17T14:49:47.129Z,99.99